Time;durP1;ratioP1;P1;durP2;ratioP2;P2;SDS_P1;SDS_P2;PMS_P1;PMS_P2;Temp;Humidity;BMP_temperature;BMP_pressure;BME280_temperature;BME280_humidity;BME280_pressure;Samples;Min_cycle;Max_cycle;Signal;HPM_P1;HPM_P2
2023/06/25 00:00:44;;;;;;;5.40;4.17;;;;;;;;;;5093666;28;20219;-78
2023/06/25 00:03:11;;;;;;;5.20;4.40;;;;;;;;;;5111695;28;20197;-78
2023/06/25 00:05:38;;;;;;;4.47;4.07;;;;;;;;;;5112055;28;20196;-78
2023/06/25 00:08:06;;;;;;;4.70;4.10;;;;;;;;;;5103423;28;20591;-78
2023/06/25 00:10:33;;;;;;;6.50;4.67;;;;;;;;;;5105101;28;20256;-78
2023/06/25 00:13:00;;;;;;;4.73;4.33;;;;;;;;;;5100673;28;20195;-78
2023/06/25 00:15:27;;;;;;;7.10;5.40;;;;;;;;;;5098439;28;20204;-78
2023/06/25 00:17:54;;;;;;;5.17;4.40;;;;;;;;;;5102149;28;20698;-77
2023/06/25 00:20:20;;;;;;;5.20;4.70;;;;;;;;;;5107543;28;20260;-78
2023/06/25 00:22:47;;;;;;;7.03;4.67;;;;;;;;;;5101760;28;20586;-78
2023/06/25 00:25:16;;;;;;;6.57;4.63;;;;;;;;;;5104563;28;20567;-77
2023/06/25 00:27:47;;;;;;;4.60;4.07;;;;;;;;;;5101299;28;20701;-77
2023/06/25 00:30:14;;;;;;;4.50;4.13;;;;;;;;;;5097886;28;20192;-77
2023/06/25 00:32:41;;;;;;;6.03;4.50;;;;;;;;;;5099997;28;20289;-77
2023/06/25 00:35:09;;;;;;;5.37;4.87;;;;;;;;;;5095542;28;20196;-77
2023/06/25 00:37:36;;;;;;;5.30;4.67;;;;;;;;;;5111078;28;20234;-78
2023/06/25 00:40:04;;;;;;;4.97;4.53;;;;;;;;;;5092750;28;20196;-78
2023/06/25 00:42:41;;;;;;;5.57;4.43;;;;;;;;;;5102313;28;20263;-78
2023/06/25 00:45:09;;;;;;;4.40;4.00;;;;;;;;;;5111519;28;20191;-78
2023/06/25 00:47:36;;;;;;;10.57;4.73;;;;;;;;;;5111226;28;20651;-78
2023/06/25 00:50:04;;;;;;;4.77;4.37;;;;;;;;;;5097654;28;20705;-78
2023/06/25 00:52:30;;;;;;;8.73;5.17;;;;;;;;;;5097502;28;20210;-78
2023/06/25 00:54:57;;;;;;;6.73;4.57;;;;;;;;;;5103602;28;20197;-78
2023/06/25 00:57:27;;;;;;;5.53;4.90;;;;;;;;;;5091856;28;20228;-78
2023/06/25 00:59:56;;;;;;;4.43;4.10;;;;;;;;;;5110991;28;20282;-78
2023/06/25 01:02:26;;;;;;;5.43;4.67;;;;;;;;;;5097021;28;20246;-77
2023/06/25 01:05:05;;;;;;;5.10;4.47;;;;;;;;;;5102297;28;20200;-77
2023/06/25 01:07:36;;;;;;;4.73;4.33;;;;;;;;;;5104372;28;20196;-77
2023/06/25 01:10:03;;;;;;;4.33;3.93;;;;;;;;;;5102576;28;20207;-77
2023/06/25 01:12:30;;;;;;;5.30;4.90;;;;;;;;;;5111085;28;20282;-77
2023/06/25 01:14:59;;;;;;;6.97;5.23;;;;;;;;;;5111953;28;20207;-77
2023/06/25 01:17:26;;;;;;;6.63;4.57;;;;;;;;;;5096819;28;20229;-77
2023/06/25 01:19:53;;;;;;;5.27;4.77;;;;;;;;;;5111154;28;20296;-77
2023/06/25 01:22:27;;;;;;;6.00;4.63;;;;;;;;;;5110356;28;20195;-77
2023/06/25 01:24:54;;;;;;;8.63;5.07;;;;;;;;;;5111210;28;20207;-78
2023/06/25 01:27:21;;;;;;;5.87;4.33;;;;;;;;;;5110576;28;20199;-77
2023/06/25 01:29:48;;;;;;;5.60;4.53;;;;;;;;;;5096840;28;20197;-78
2023/06/25 01:32:15;;;;;;;5.40;4.90;;;;;;;;;;5090355;28;20291;-78
2023/06/25 01:34:42;;;;;;;6.07;4.60;;;;;;;;;;5104587;28;20199;-77
2023/06/25 01:37:09;;;;;;;4.90;4.40;;;;;;;;;;5114335;28;20288;-78
2023/06/25 01:39:37;;;;;;;4.70;4.30;;;;;;;;;;5100881;28;20622;-78
2023/06/25 01:42:04;;;;;;;5.43;4.93;;;;;;;;;;5114792;28;20196;-78
2023/06/25 01:44:32;;;;;;;4.57;4.17;;;;;;;;;;5100325;28;20646;-78
2023/06/25 01:46:59;;;;;;;4.40;4.00;;;;;;;;;;5094407;28;20196;-78
2023/06/25 01:49:27;;;;;;;5.00;4.60;;;;;;;;;;5095132;28;20269;-78
2023/06/25 01:51:53;;;;;;;5.10;4.60;;;;;;;;;;5106015;28;20263;-77
2023/06/25 01:54:20;;;;;;;4.60;4.20;;;;;;;;;;5095499;28;20204;-77
2023/06/25 01:56:48;;;;;;;4.83;4.43;;;;;;;;;;5106312;28;20204;-78
2023/06/25 01:59:15;;;;;;;5.03;4.50;;;;;;;;;;5109049;28;20782;-77
2023/06/25 02:01:42;;;;;;;4.87;4.47;;;;;;;;;;5114773;28;20199;-77
2023/06/25 02:04:09;;;;;;;4.57;4.17;;;;;;;;;;5100604;28;20230;-78
2023/06/25 02:06:36;;;;;;;4.93;4.43;;;;;;;;;;5114417;28;20642;-78
2023/06/25 02:09:03;;;;;;;5.17;4.77;;;;;;;;;;5100064;28;20204;-77
2023/06/25 02:11:30;;;;;;;5.33;4.27;;;;;;;;;;5110769;28;20199;-78
2023/06/25 02:13:58;;;;;;;4.83;4.30;;;;;;;;;;5100398;28;20586;-78
2023/06/25 02:16:25;;;;;;;10.73;4.60;;;;;;;;;;5104554;28;20207;-78
2023/06/25 02:18:53;;;;;;;4.50;4.10;;;;;;;;;;5107203;28;20251;-78
2023/06/25 02:21:19;;;;;;;6.30;5.50;;;;;;;;;;5103890;28;20196;-78
2023/06/25 02:23:46;;;;;;;4.60;4.20;;;;;;;;;;5096679;28;20277;-78
2023/06/25 02:26:13;;;;;;;5.47;4.70;;;;;;;;;;5104670;28;20674;-78
2023/06/25 02:28:40;;;;;;;4.50;4.10;;;;;;;;;;5113376;28;20692;-78
2023/06/25 02:31:08;;;;;;;5.00;4.60;;;;;;;;;;5103082;28;20204;-78
2023/06/25 02:33:34;;;;;;;4.67;4.17;;;;;;;;;;5107168;28;20666;-78
2023/06/25 02:36:01;;;;;;;6.07;4.53;;;;;;;;;;5093417;28;20221;-78
2023/06/25 02:38:28;;;;;;;5.30;4.80;;;;;;;;;;5106691;28;20220;-78
2023/06/25 02:40:55;;;;;;;5.87;4.70;;;;;;;;;;5093414;28;20601;-78
2023/06/25 02:43:22;;;;;;;5.43;4.60;;;;;;;;;;5106656;28;20226;-78
2023/06/25 02:45:49;;;;;;;4.70;4.30;;;;;;;;;;5105230;28;20207;-78
2023/06/25 02:48:17;;;;;;;5.77;5.17;;;;;;;;;;5112224;28;20194;-78
2023/06/25 02:50:44;;;;;;;6.43;4.77;;;;;;;;;;5100858;28;20578;-78
2023/06/25 02:53:10;;;;;;;6.60;4.87;;;;;;;;;;5098747;28;20678;-78
2023/06/25 02:55:37;;;;;;;5.50;4.77;;;;;;;;;;5113758;28;20200;-78
2023/06/25 02:58:04;;;;;;;5.60;4.90;;;;;;;;;;5106682;28;20216;-78
2023/06/25 03:00:30;;;;;;;4.77;4.37;;;;;;;;;;5092735;28;20200;-78
2023/06/25 03:02:57;;;;;;;5.73;4.80;;;;;;;;;;5112890;28;20202;-78
2023/06/25 03:05:25;;;;;;;6.30;4.30;;;;;;;;;;5112389;28;20203;-78
2023/06/25 03:07:53;;;;;;;5.53;5.03;;;;;;;;;;5094114;28;20208;-78
2023/06/25 03:10:20;;;;;;;6.97;5.10;;;;;;;;;;5112919;28;20207;-76
2023/06/25 03:12:47;;;;;;;5.83;4.30;;;;;;;;;;5104471;28;20294;-76
2023/06/25 03:15:14;;;;;;;5.10;4.60;;;;;;;;;;5094695;28;20634;-76
2023/06/25 03:17:40;;;;;;;5.13;4.63;;;;;;;;;;5112977;28;20223;-76
2023/06/25 03:20:08;;;;;;;4.87;4.37;;;;;;;;;;5098823;28;20200;-76
2023/06/25 03:22:37;;;;;;;12.57;4.60;;;;;;;;;;5112711;28;20200;-76
2023/06/25 03:25:04;;;;;;;4.83;4.37;;;;;;;;;;5113092;28;20199;-76
2023/06/25 03:27:31;;;;;;;6.30;4.93;;;;;;;;;;5104213;28;20204;-76
2023/06/25 03:29:58;;;;;;;5.70;5.13;;;;;;;;;;5093929;28;20291;-76
2023/06/25 03:32:25;;;;;;;6.10;4.60;;;;;;;;;;5104281;28;20197;-76
2023/06/25 03:34:51;;;;;;;5.20;4.70;;;;;;;;;;5107308;28;20203;-76
2023/06/25 03:37:18;;;;;;;6.07;5.50;;;;;;;;;;5112925;28;20210;-76
2023/06/25 03:39:47;;;;;;;5.60;5.10;;;;;;;;;;5112602;28;20227;-76
2023/06/25 03:42:13;;;;;;;6.40;5.90;;;;;;;;;;5103090;28;20200;-76
2023/06/25 03:44:45;;;;;;;6.37;5.77;;;;;;;;;;5108276;28;20200;-76
2023/06/25 03:47:12;;;;;;;6.70;5.70;;;;;;;;;;5111043;28;20203;-76
2023/06/25 03:49:39;;;;;;;6.00;5.43;;;;;;;;;;5112370;28;20260;-76
2023/06/25 03:52:06;;;;;;;7.20;6.50;;;;;;;;;;5108204;28;20288;-76
2023/06/25 03:54:33;;;;;;;7.30;5.67;;;;;;;;;;5097346;28;20204;-76
2023/06/25 03:57:01;;;;;;;7.13;6.13;;;;;;;;;;5102138;28;20633;-76
2023/06/25 03:59:29;;;;;;;6.13;5.57;;;;;;;;;;5097997;28;20228;-76
2023/06/25 04:01:55;;;;;;;7.50;6.77;;;;;;;;;;5112103;28;20291;-76
2023/06/25 04:04:22;;;;;;;6.90;6.20;;;;;;;;;;5097866;28;20633;-76
2023/06/25 04:06:49;;;;;;;7.10;6.40;;;;;;;;;;5103808;28;20211;-76
2023/06/25 04:09:15;;;;;;;7.47;5.60;;;;;;;;;;5104461;28;20204;-76
2023/06/25 04:11:42;;;;;;;7.30;5.90;;;;;;;;;;5102857;28;20214;-78
2023/06/25 04:14:10;;;;;;;7.27;6.17;;;;;;;;;;5091961;28;20204;-77
2023/06/25 04:16:37;;;;;;;6.73;5.67;;;;;;;;;;5105491;28;20203;-77
2023/06/25 04:19:04;;;;;;;10.50;6.00;;;;;;;;;;5111660;28;20215;-77
2023/06/25 04:21:31;;;;;;;6.50;5.90;;;;;;;;;;5110712;28;20207;-77
2023/06/25 04:23:57;;;;;;;6.50;5.90;;;;;;;;;;5098188;28;20245;-78
2023/06/25 04:26:24;;;;;;;11.97;5.83;;;;;;;;;;5111488;28;20256;-78
2023/06/25 04:28:51;;;;;;;8.43;6.30;;;;;;;;;;5111257;28;20203;-78
2023/06/25 04:31:21;;;;;;;6.83;5.73;;;;;;;;;;5101192;28;20208;-77
2023/06/25 04:33:48;;;;;;;6.87;6.17;;;;;;;;;;5095026;28;20299;-77
2023/06/25 04:36:16;;;;;;;11.57;6.43;;;;;;;;;;5100355;28;20736;-77
2023/06/25 04:38:42;;;;;;;7.93;6.00;;;;;;;;;;5107514;28;20231;-78
2023/06/25 04:41:09;;;;;;;7.13;5.90;;;;;;;;;;5110897;28;20661;-77
2023/06/25 04:43:37;;;;;;;7.57;6.77;;;;;;;;;;5109908;28;20570;-77
2023/06/25 04:46:04;;;;;;;8.03;7.03;;;;;;;;;;5090613;28;20207;-76
2023/06/25 04:48:32;;;;;;;6.70;6.00;;;;;;;;;;5108130;28;20203;-77
2023/06/25 04:50:59;;;;;;;12.87;7.27;;;;;;;;;;5102791;28;20255;-77
2023/06/25 04:53:26;;;;;;;10.67;6.67;;;;;;;;;;5104358;28;20203;-77
2023/06/25 04:55:53;;;;;;;6.87;5.87;;;;;;;;;;5099599;28;20203;-77
2023/06/25 04:58:19;;;;;;;7.73;6.27;;;;;;;;;;5094681;28;20227;-77
2023/06/25 05:00:46;;;;;;;8.50;6.17;;;;;;;;;;5099321;28;20199;-77
2023/06/25 05:03:13;;;;;;;10.70;7.37;;;;;;;;;;5096235;28;20203;-77
2023/06/25 05:05:41;;;;;;;8.20;6.93;;;;;;;;;;5109875;28;20586;-77
2023/06/25 05:08:08;;;;;;;8.03;6.07;;;;;;;;;;5096383;28;20266;-77
2023/06/25 05:10:35;;;;;;;6.40;5.80;;;;;;;;;;5102640;28;20196;-76
2023/06/25 05:13:03;;;;;;;6.83;6.23;;;;;;;;;;5117625;28;20199;-76
2023/06/25 05:15:30;;;;;;;9.43;6.43;;;;;;;;;;5117067;28;20230;-76
2023/06/25 05:17:57;;;;;;;9.20;6.07;;;;;;;;;;5097539;28;20215;-77
2023/06/25 05:20:24;;;;;;;6.40;5.77;;;;;;;;;;5097513;28;21629;-76
2023/06/25 05:22:52;;;;;;;6.33;5.70;;;;;;;;;;5097235;28;20233;-76
2023/06/25 05:25:19;;;;;;;7.83;6.47;;;;;;;;;;5100618;28;20750;-77
2023/06/25 05:27:45;;;;;;;9.77;6.77;;;;;;;;;;5117669;28;20197;-77
2023/06/25 05:30:12;;;;;;;12.30;6.00;;;;;;;;;;5100547;28;20203;-77
2023/06/25 05:32:39;;;;;;;8.97;5.90;;;;;;;;;;5107278;28;20195;-77
2023/06/25 05:35:06;;;;;;;8.70;6.30;;;;;;;;;;5115447;28;20249;-78
2023/06/25 05:37:33;;;;;;;11.40;6.30;;;;;;;;;;5117929;28;20195;-79
2023/06/25 05:40:01;;;;;;;9.93;6.17;;;;;;;;;;5114743;28;20602;-79
2023/06/25 05:42:29;;;;;;;9.33;6.50;;;;;;;;;;5106348;28;20208;-79
2023/06/25 05:44:55;;;;;;;7.03;5.87;;;;;;;;;;5114641;28;20685;-79
2023/06/25 05:47:22;;;;;;;6.13;5.53;;;;;;;;;;5117006;28;20210;-78
2023/06/25 05:49:49;;;;;;;6.27;4.80;;;;;;;;;;5116952;28;20203;-79
2023/06/25 05:52:15;;;;;;;8.43;5.63;;;;;;;;;;5103591;28;20239;-79
2023/06/25 05:54:42;;;;;;;8.57;5.07;;;;;;;;;;5117061;28;20203;-78
2023/06/25 05:57:11;;;;;;;10.73;6.40;;;;;;;;;;5104011;28;20203;-79
2023/06/25 05:59:39;;;;;;;6.23;5.10;;;;;;;;;;5097060;28;20633;-78
2023/06/25 06:02:07;;;;;;;7.83;5.63;;;;;;;;;;5110535;28;20253;-78
2023/06/25 06:04:34;;;;;;;6.60;5.87;;;;;;;;;;5104741;28;20208;-78
2023/06/25 06:07:01;;;;;;;10.83;5.70;;;;;;;;;;5106661;28;20626;-78
2023/06/25 06:09:28;;;;;;;11.17;6.00;;;;;;;;;;5109725;28;20420;-79
2023/06/25 06:11:56;;;;;;;8.60;5.33;;;;;;;;;;5096415;28;20217;-79
2023/06/25 06:14:24;;;;;;;12.17;5.37;;;;;;;;;;5101998;28;20207;-79
2023/06/25 06:16:51;;;;;;;8.97;4.90;;;;;;;;;;5116668;28;20202;-78
2023/06/25 06:19:17;;;;;;;6.87;5.50;;;;;;;;;;5102976;28;20268;-78
2023/06/25 06:21:44;;;;;;;9.90;5.97;;;;;;;;;;5103094;28;20273;-78
2023/06/25 06:24:11;;;;;;;9.03;5.73;;;;;;;;;;5092281;28;20245;-78
2023/06/25 06:26:38;;;;;;;8.00;5.80;;;;;;;;;;5107318;28;20249;-79
2023/06/25 06:29:04;;;;;;;4.93;4.53;;;;;;;;;;5105140;28;20709;-78
2023/06/25 06:31:32;;;;;;;11.43;5.73;;;;;;;;;;5093624;28;20705;-78
2023/06/25 06:33:59;;;;;;;8.37;5.80;;;;;;;;;;5112381;28;20203;-79
2023/06/25 06:36:26;;;;;;;7.87;4.97;;;;;;;;;;5097940;28;20641;-79
2023/06/25 06:38:53;;;;;;;11.07;6.00;;;;;;;;;;5101394;28;20223;-78
2023/06/25 06:41:19;;;;;;;7.53;5.10;;;;;;;;;;5113826;28;20199;-78
2023/06/25 06:43:46;;;;;;;8.50;5.70;;;;;;;;;;5113242;28;20207;-79
2023/06/25 06:46:13;;;;;;;7.07;5.10;;;;;;;;;;5100300;28;20259;-78
2023/06/25 06:48:41;;;;;;;7.10;5.97;;;;;;;;;;5113240;28;20199;-78
2023/06/25 06:51:08;;;;;;;11.83;6.67;;;;;;;;;;5097563;28;20239;-78
2023/06/25 06:53:35;;;;;;;7.33;5.13;;;;;;;;;;5102496;28;20204;-78
2023/06/25 06:56:02;;;;;;;9.37;5.73;;;;;;;;;;5100166;28;20200;-79
2023/06/25 06:58:28;;;;;;;7.17;5.27;;;;;;;;;;5103573;28;20702;-78
2023/06/25 07:00:55;;;;;;;6.90;5.70;;;;;;;;;;5093034;28;20735;-78
2023/06/25 07:03:22;;;;;;;8.67;5.07;;;;;;;;;;5092860;28;20199;-78
2023/06/25 07:05:51;;;;;;;11.77;5.63;;;;;;;;;;5093192;28;20196;-77
2023/06/25 07:08:18;;;;;;;11.00;5.47;;;;;;;;;;5103465;28;20276;-79
2023/06/25 07:10:45;;;;;;;7.30;4.93;;;;;;;;;;5098979;28;20744;-78
2023/06/25 07:13:11;;;;;;;9.20;5.57;;;;;;;;;;5112812;28;20791;-79
2023/06/25 07:15:38;;;;;;;9.63;5.87;;;;;;;;;;5108919;28;20200;-78
2023/06/25 07:18:06;;;;;;;8.33;5.03;;;;;;;;;;5092853;28;20207;-79
2023/06/25 07:20:33;;;;;;;9.57;5.43;;;;;;;;;;5106353;28;20235;-78
2023/06/25 07:23:01;;;;;;;6.17;5.40;;;;;;;;;;5103915;28;20196;-79
2023/06/25 07:25:27;;;;;;;15.60;7.63;;;;;;;;;;5098662;28;20294;-79
2023/06/25 07:27:54;;;;;;;7.77;6.13;;;;;;;;;;5101133;28;20211;-78
2023/06/25 07:30:21;;;;;;;9.67;5.30;;;;;;;;;;5106133;28;20211;-79
2023/06/25 07:32:48;;;;;;;9.17;5.27;;;;;;;;;;5104112;28;20203;-78
2023/06/25 07:35:14;;;;;;;6.18;5.53;;;;;;;;;;5098689;28;20199;-77
2023/06/25 07:37:41;;;;;;;8.73;5.78;;;;;;;;;;5112926;28;20203;-77
2023/06/25 07:40:12;;;;;;;9.48;5.72;;;;;;;;;;5098717;28;20729;-78
2023/06/25 07:42:39;;;;;;;10.80;5.00;;;;;;;;;;5099114;28;20204;-78
2023/06/25 07:45:07;;;;;;;9.40;5.40;;;;;;;;;;5098500;28;20195;-79
2023/06/25 07:47:34;;;;;;;17.02;6.10;;;;;;;;;;5112105;28;20200;-78
2023/06/25 07:50:00;;;;;;;11.93;5.75;;;;;;;;;;5098875;28;20293;-78
2023/06/25 07:52:27;;;;;;;7.60;5.13;;;;;;;;;;5099310;28;20239;-80
2023/06/25 07:54:54;;;;;;;6.75;5.10;;;;;;;;;;5112348;28;20692;-78
2023/06/25 07:57:22;;;;;;;6.93;5.32;;;;;;;;;;5098352;28;20586;-78
2023/06/25 07:59:49;;;;;;;9.25;4.82;;;;;;;;;;5098682;28;20650;-78
2023/06/25 08:02:16;;;;;;;8.85;5.15;;;;;;;;;;5111743;28;20256;-79
2023/06/25 08:04:42;;;;;;;13.63;5.95;;;;;;;;;;5112336;28;20203;-78
2023/06/25 08:07:10;;;;;;;7.22;5.32;;;;;;;;;;5098321;28;20204;-78
2023/06/25 08:09:37;;;;;;;9.90;5.72;;;;;;;;;;5103857;28;20699;-79
2023/06/25 08:12:05;;;;;;;5.78;4.70;;;;;;;;;;5093247;28;20234;-78
2023/06/25 08:14:33;;;;;;;7.75;5.15;;;;;;;;;;5103124;28;20203;-78
2023/06/25 08:17:01;;;;;;;11.23;5.85;;;;;;;;;;5093559;28;20250;-79
2023/06/25 08:19:27;;;;;;;7.63;6.05;;;;;;;;;;5102677;28;20227;-78
2023/06/25 08:21:54;;;;;;;8.55;4.95;;;;;;;;;;5093859;28;20731;-78
2023/06/25 08:24:21;;;;;;;11.48;5.07;;;;;;;;;;5102506;28;20212;-77
2023/06/25 08:26:47;;;;;;;7.47;6.03;;;;;;;;;;5106920;28;20200;-78
2023/06/25 08:29:14;;;;;;;9.40;5.53;;;;;;;;;;5111847;28;20192;-77
2023/06/25 08:31:43;;;;;;;8.88;4.60;;;;;;;;;;5111300;28;20214;-78
2023/06/25 08:34:10;;;;;;;7.05;5.20;;;;;;;;;;5111586;28;20588;-78
2023/06/25 08:36:38;;;;;;;12.23;5.05;;;;;;;;;;5095255;28;20201;-78
2023/06/25 08:39:05;;;;;;;10.05;5.30;;;;;;;;;;5101520;28;20199;-78
2023/06/25 08:41:31;;;;;;;10.98;5.68;;;;;;;;;;5096859;28;20261;-80
2023/06/25 08:44:00;;;;;;;7.82;5.20;;;;;;;;;;5111587;28;20203;-78
2023/06/25 08:46:27;;;;;;;7.93;5.45;;;;;;;;;;5096771;28;20196;-77
2023/06/25 08:48:58;;;;;;;7.78;4.43;;;;;;;;;;5100828;28;20253;-77
2023/06/25 08:51:25;;;;;;;6.68;4.95;;;;;;;;;;5090699;28;20224;-77
2023/06/25 08:53:52;;;;;;;6.03;5.13;;;;;;;;;;5102789;28;20203;-77
2023/06/25 08:56:19;;;;;;;6.22;5.00;;;;;;;;;;5097577;28;20207;-77
2023/06/25 08:58:46;;;;;;;9.05;5.35;;;;;;;;;;5111547;28;20202;-77
2023/06/25 09:01:13;;;;;;;5.70;5.10;;;;;;;;;;5097137;28;20647;-78
2023/06/25 09:03:41;;;;;;;6.18;4.97;;;;;;;;;;5099122;28;20198;-78
2023/06/25 09:06:14;;;;;;;9.55;5.30;;;;;;;;;;5109915;28;20278;-77
2023/06/25 09:08:42;;;;;;;6.15;5.10;;;;;;;;;;5111231;28;20196;-77
2023/06/25 09:11:09;;;;;;;11.82;6.25;;;;;;;;;;5090815;28;20254;-78
2023/06/25 09:13:38;;;;;;;7.22;5.55;;;;;;;;;;5091060;28;20621;-78
2023/06/25 09:16:08;;;;;;;6.40;4.57;;;;;;;;;;5103610;28;20201;-78
2023/06/25 09:18:36;;;;;;;8.23;5.53;;;;;;;;;;5104965;28;20199;-78
2023/06/25 09:21:04;;;;;;;8.15;5.30;;;;;;;;;;5110996;28;20705;-79
2023/06/25 09:23:32;;;;;;;10.35;6.00;;;;;;;;;;5095931;28;20253;-78
2023/06/25 09:25:59;;;;;;;6.22;5.60;;;;;;;;;;5099951;28;20199;-78
2023/06/25 09:28:26;;;;;;;6.90;4.60;;;;;;;;;;5094954;28;20243;-77
2023/06/25 09:30:56;;;;;;;7.60;4.63;;;;;;;;;;5090733;28;20204;-77
2023/06/25 09:33:31;;;;;;;7.50;5.50;;;;;;;;;;5104264;28;20312;-77
2023/06/25 09:36:00;;;;;;;7.53;5.35;;;;;;;;;;5101381;28;20199;-77
2023/06/25 09:38:27;;;;;;;9.68;5.35;;;;;;;;;;5097021;28;20200;-78
2023/06/25 09:40:55;;;;;;;9.80;4.90;;;;;;;;;;5110866;28;20668;-78
2023/06/25 09:43:22;;;;;;;8.15;5.63;;;;;;;;;;5091710;28;20200;-77
2023/06/25 09:45:49;;;;;;;5.10;4.60;;;;;;;;;;5102573;28;20605;-77
2023/06/25 09:48:16;;;;;;;8.18;4.90;;;;;;;;;;5105464;28;20196;-78
2023/06/25 09:50:45;;;;;;;9.35;5.43;;;;;;;;;;5102880;28;20631;-78
2023/06/25 09:53:20;;;;;;;7.40;5.63;;;;;;;;;;5091313;28;20200;-78
2023/06/25 09:55:47;;;;;;;5.50;5.00;;;;;;;;;;5090489;28;20286;-78
2023/06/25 09:58:15;;;;;;;6.70;5.18;;;;;;;;;;5113954;28;20196;-78
2023/06/25 10:00:43;;;;;;;12.68;5.30;;;;;;;;;;5100914;28;20231;-78
2023/06/25 10:03:14;;;;;;;5.85;4.57;;;;;;;;;;5106442;28;20204;-78
2023/06/25 10:05:41;;;;;;;8.45;5.07;;;;;;;;;;5107385;28;20681;-78
2023/06/25 10:08:11;;;;;;;4.97;4.47;;;;;;;;;;5093824;28;20686;-78
2023/06/25 10:10:38;;;;;;;10.60;5.43;;;;;;;;;;5096865;28;20689;-78
2023/06/25 10:13:06;;;;;;;6.47;5.22;;;;;;;;;;5104580;28;20287;-78
2023/06/25 10:15:35;;;;;;;6.88;5.85;;;;;;;;;;5107989;28;20216;-78
2023/06/25 10:18:03;;;;;;;7.80;5.40;;;;;;;;;;5104023;28;20199;-77
2023/06/25 10:20:32;;;;;;;7.45;5.72;;;;;;;;;;5100147;28;20732;-78
2023/06/25 10:23:09;;;;;;;7.53;5.63;;;;;;;;;;5114328;28;20210;-78
2023/06/25 10:25:38;;;;;;;7.65;4.72;;;;;;;;;;5107897;28;20678;-78
2023/06/25 10:28:07;;;;;;;10.30;5.85;;;;;;;;;;5106286;28;20670;-78
2023/06/25 10:30:40;;;;;;;5.40;4.90;;;;;;;;;;5107337;28;20205;-78
2023/06/25 10:33:10;;;;;;;7.03;4.80;;;;;;;;;;5107804;28;20670;-78
2023/06/25 10:35:39;;;;;;;5.95;4.72;;;;;;;;;;5105567;28;20679;-78
2023/06/25 10:38:06;;;;;;;7.05;4.32;;;;;;;;;;5095557;28;20683;-78
2023/06/25 10:40:34;;;;;;;6.18;4.65;;;;;;;;;;5113669;28;20227;-78
2023/06/25 10:43:01;;;;;;;7.00;5.28;;;;;;;;;;5113261;28;20211;-78
2023/06/25 10:45:27;;;;;;;7.75;5.10;;;;;;;;;;5104472;28;20245;-78
2023/06/25 10:48:05;;;;;;;6.53;4.47;;;;;;;;;;5095990;28;20192;-78
2023/06/25 10:50:33;;;;;;;5.35;4.85;;;;;;;;;;5101831;28;20204;-78
2023/06/25 10:53:00;;;;;;;6.22;5.63;;;;;;;;;;5107008;28;20200;-78
2023/06/25 10:55:26;;;;;;;5.80;5.25;;;;;;;;;;5093053;28;20254;-78
2023/06/25 10:57:54;;;;;;;7.95;4.95;;;;;;;;;;5106511;28;20204;-78
2023/06/25 11:00:24;;;;;;;4.78;4.13;;;;;;;;;;5093326;28;20656;-78
2023/06/25 11:02:52;;;;;;;5.55;5.05;;;;;;;;;;5098572;28;20595;-77
2023/06/25 11:05:33;;;;;;;4.97;4.47;;;;;;;;;;5099958;28;20205;-78
2023/06/25 11:07:59;;;;;;;5.45;4.85;;;;;;;;;;5100314;28;20282;-78
2023/06/25 11:10:26;;;;;;;6.25;5.70;;;;;;;;;;5098189;28;20205;-78
2023/06/25 11:12:53;;;;;;;6.22;4.55;;;;;;;;;;5092660;28;20258;-79
2023/06/25 11:15:20;;;;;;;5.63;5.13;;;;;;;;;;5092539;28;20697;-78
2023/06/25 11:17:51;;;;;;;6.40;4.60;;;;;;;;;;5092672;28;20203;-78
2023/06/25 11:20:18;;;;;;;5.10;4.65;;;;;;;;;;5109116;28;20249;-78
2023/06/25 11:22:46;;;;;;;6.03;4.40;;;;;;;;;;5112891;28;20594;-79
2023/06/25 11:25:13;;;;;;;5.13;4.00;;;;;;;;;;5113021;28;20214;-79
2023/06/25 11:27:41;;;;;;;6.75;5.20;;;;;;;;;;5112837;28;20227;-78
2023/06/25 11:30:10;;;;;;;9.07;5.60;;;;;;;;;;5099356;28;20198;-79
2023/06/25 11:32:39;;;;;;;6.47;5.47;;;;;;;;;;5102350;28;20200;-78
2023/06/25 11:35:11;;;;;;;5.55;4.85;;;;;;;;;;5106039;28;20209;-79
2023/06/25 11:37:46;;;;;;;7.18;4.50;;;;;;;;;;5103896;28;20238;-79
2023/06/25 11:40:24;;;;;;;4.70;4.28;;;;;;;;;;5099166;28;20203;-78
2023/06/25 11:42:52;;;;;;;6.38;4.43;;;;;;;;;;5111064;28;20203;-79
2023/06/25 11:45:19;;;;;;;5.10;4.38;;;;;;;;;;5101029;28;20300;-78
2023/06/25 11:47:47;;;;;;;4.55;4.15;;;;;;;;;;5110082;28;20199;-79
2023/06/25 11:50:14;;;;;;;6.07;4.40;;;;;;;;;;5092288;28;20196;-79
2023/06/25 11:52:40;;;;;;;5.05;4.60;;;;;;;;;;5094261;28;20207;-78
2023/06/25 11:55:11;;;;;;;4.97;4.25;;;;;;;;;;5103194;28;20196;-79
2023/06/25 11:57:38;;;;;;;4.70;4.30;;;;;;;;;;5105038;28;20232;-79
2023/06/25 12:00:06;;;;;;;4.50;4.07;;;;;;;;;;5102107;28;20207;-78
2023/06/25 12:02:33;;;;;;;5.40;4.90;;;;;;;;;;5098422;28;20245;-78
2023/06/25 12:05:00;;;;;;;5.22;4.72;;;;;;;;;;5112185;28;20195;-78
2023/06/25 12:07:27;;;;;;;4.47;4.07;;;;;;;;;;5098233;28;20203;-79
2023/06/25 12:09:53;;;;;;;6.80;5.03;;;;;;;;;;5112024;28;20199;-78
2023/06/25 12:12:22;;;;;;;6.95;4.72;;;;;;;;;;5111803;28;20588;-78
2023/06/25 12:14:51;;;;;;;4.45;4.05;;;;;;;;;;5100855;28;20710;-78
2023/06/25 12:17:18;;;;;;;7.43;4.63;;;;;;;;;;5109356;28;20781;-79
2023/06/25 12:19:44;;;;;;;7.10;5.53;;;;;;;;;;5111185;28;20586;-78
2023/06/25 12:22:11;;;;;;;5.70;4.97;;;;;;;;;;5111040;28;20744;-79
2023/06/25 12:24:39;;;;;;;5.65;4.93;;;;;;;;;;5100926;28;20203;-78
2023/06/25 12:27:06;;;;;;;6.68;4.97;;;;;;;;;;5095925;28;20207;-79
2023/06/25 12:29:34;;;;;;;5.28;4.78;;;;;;;;;;5100173;28;20212;-78
2023/06/25 12:32:01;;;;;;;5.13;4.63;;;;;;;;;;5097364;28;20207;-78
2023/06/25 12:34:28;;;;;;;5.18;4.32;;;;;;;;;;5098976;28;20207;-78
2023/06/25 12:36:55;;;;;;;4.88;4.40;;;;;;;;;;5110454;28;20199;-78
2023/06/25 12:39:22;;;;;;;5.63;4.25;;;;;;;;;;5111625;28;20693;-78
2023/06/25 12:41:52;;;;;;;5.90;4.25;;;;;;;;;;5110842;28;20224;-78
2023/06/25 12:44:19;;;;;;;5.70;4.78;;;;;;;;;;5111493;28;20207;-78
2023/06/25 12:46:47;;;;;;;4.72;4.32;;;;;;;;;;5104953;28;20204;-78
2023/06/25 12:49:14;;;;;;;7.70;4.88;;;;;;;;;;5104915;28;20203;-79
2023/06/25 12:51:41;;;;;;;6.70;5.05;;;;;;;;;;5090761;28;20612;-78
2023/06/25 12:54:08;;;;;;;6.95;4.93;;;;;;;;;;5104764;28;20268;-78
2023/06/25 12:56:34;;;;;;;8.10;4.68;;;;;;;;;;5104476;28;20204;-78
2023/06/25 12:59:01;;;;;;;9.00;4.65;;;;;;;;;;5090950;28;20204;-78
2023/06/25 13:01:28;;;;;;;5.47;4.97;;;;;;;;;;5098005;28;20223;-78
2023/06/25 13:03:56;;;;;;;5.60;4.93;;;;;;;;;;5110505;28;20199;-78
2023/06/25 13:06:23;;;;;;;5.65;4.90;;;;;;;;;;5091003;28;20851;-78
2023/06/25 13:08:50;;;;;;;5.70;5.20;;;;;;;;;;5105097;28;20294;-78
2023/06/25 13:11:17;;;;;;;6.15;5.18;;;;;;;;;;5111329;28;20206;-79
2023/06/25 13:13:44;;;;;;;6.03;5.32;;;;;;;;;;5097216;28;20212;-78
2023/06/25 13:16:12;;;;;;;9.05;6.00;;;;;;;;;;5103000;28;20195;-78
2023/06/25 13:18:40;;;;;;;6.90;5.28;;;;;;;;;;5092548;28;20637;-78
2023/06/25 13:21:09;;;;;;;8.35;5.15;;;;;;;;;;5101600;28;20255;-78
2023/06/25 13:23:38;;;;;;;9.90;5.28;;;;;;;;;;5103919;28;20234;-79
2023/06/25 13:26:05;;;;;;;5.18;4.75;;;;;;;;;;5100354;28;20750;-78
2023/06/25 13:28:32;;;;;;;6.45;5.43;;;;;;;;;;5109429;28;20207;-79
2023/06/25 13:30:59;;;;;;;7.28;5.10;;;;;;;;;;5090779;28;20640;-79
2023/06/25 13:33:25;;;;;;;5.88;5.25;;;;;;;;;;5107602;28;20634;-78
2023/06/25 13:35:52;;;;;;;6.15;5.65;;;;;;;;;;5094700;28;20204;-78
2023/06/25 13:38:21;;;;;;;6.72;5.57;;;;;;;;;;5111541;28;20203;-78
2023/06/25 13:40:48;;;;;;;7.25;5.38;;;;;;;;;;5104355;28;20200;-78
2023/06/25 13:43:15;;;;;;;10.70;6.50;;;;;;;;;;5108253;28;20208;-78
2023/06/25 13:45:42;;;;;;;17.92;12.77;;;;;;;;;;5107681;28;20197;-79
2023/06/25 13:48:09;;;;;;;30.02;20.60;;;;;;;;;;5102565;28;20206;-78
2023/06/25 13:50:36;;;;;;;35.55;21.70;;;;;;;;;;5114742;28;20195;-79
2023/06/25 13:53:03;;;;;;;11.93;6.80;;;;;;;;;;5101509;28;20196;-78
2023/06/25 13:55:31;;;;;;;11.85;8.82;;;;;;;;;;5094589;28;20200;-78
2023/06/25 13:57:58;;;;;;;15.10;10.15;;;;;;;;;;5102868;28;20204;-77
2023/06/25 14:00:25;;;;;;;8.48;5.70;;;;;;;;;;5110133;28;20206;-78
2023/06/25 14:02:51;;;;;;;6.90;5.50;;;;;;;;;;5108150;28;20224;-78
2023/06/25 14:05:18;;;;;;;8.07;5.85;;;;;;;;;;5105745;28;20621;-78
2023/06/25 14:07:45;;;;;;;6.57;5.68;;;;;;;;;;5113926;28;20203;-79
2023/06/25 14:10:12;;;;;;;5.85;5.22;;;;;;;;;;5106323;28;20201;-78
2023/06/25 14:12:40;;;;;;;10.65;5.40;;;;;;;;;;5110692;28;20219;-79
2023/06/25 14:15:08;;;;;;;5.43;4.90;;;;;;;;;;5114374;28;20215;-79
2023/06/25 14:17:34;;;;;;;7.15;5.50;;;;;;;;;;5114323;28;20203;-78
2023/06/25 14:20:01;;;;;;;6.97;5.25;;;;;;;;;;5114362;28;20203;-78
2023/06/25 14:22:28;;;;;;;7.95;5.45;;;;;;;;;;5113727;28;20296;-77
2023/06/25 14:24:57;;;;;;;6.47;5.72;;;;;;;;;;5103860;28;20830;-78
2023/06/25 14:27:24;;;;;;;6.63;5.65;;;;;;;;;;5111811;28;20204;-77
2023/06/25 14:29:53;;;;;;;6.78;5.72;;;;;;;;;;5114316;28;20206;-77
2023/06/25 14:32:20;;;;;;;9.43;6.22;;;;;;;;;;5113949;28;20199;-77
2023/06/25 14:34:46;;;;;;;6.88;5.65;;;;;;;;;;5114265;28;20200;-77
2023/06/25 14:37:13;;;;;;;5.53;4.43;;;;;;;;;;5112325;28;20215;-78
2023/06/25 14:39:43;;;;;;;5.85;4.97;;;;;;;;;;5100836;28;20747;-77
2023/06/25 14:42:11;;;;;;;6.65;4.85;;;;;;;;;;5093197;28;20245;-78